Waipahu, HI (96797)

10:16 AM HST on April 21, 2015 (GMT -1000)
Ewa | | Change Station
CLOSE
Current Station
Personal Weather Station
Location: Ewa Beach, HI
Elevation: 46 ft
Nearby Weather Stations

Elev 46 ft 21.34 °N, 158.03 °W | Updated 1 minute ago

Partly Cloudy
Partly Cloudy
79.6 °F
Feels Like 81 °F
N
8.3
Wind Variable Wind from ENE
Gusts 21.0 mph

Today
High -- | Low -- °F
--% Chance of Precip.
Yesterday
High -- | Low -- °F
Precip. -- in
6:08 AM 6:53 PM
Waxing Crescent, 12% visible
Pressure 30.06 in
Visibility 10.0 miles
Clouds Few 5000 ft
Heat Index 81 °F
Dew Point 64 °F
Humidity 59%
Rainfall -999.00 in
Snow Depth Not available.
UV 8 out of 12
Pollen Not available.
Air Quality Not available.
Flu Activity Regional
METAR PHHI 211958Z 14009G16KT 10SM FEW050 25/15 A3008 RMK AO2A SLP177 WND DATA ESTMD ALSTG/SLP DATA ESTMD

More Conditions Fewer Conditions

Pressure 30.06 in
Visibility 10.0 miles
Clouds Few 5000 ft
Heat Index 81 °F
Dew Point 64 °F
Humidity 59%
Rainfall -999.00 in
Snow Depth Not available.
UV 8 out of 12
Pollen Not available.
Air Quality Not available.
Flu Activity Regional
METAR PHHI 211958Z 14009G16KT 10SM FEW050 25/15 A3008 RMK AO2A SLP177 WND DATA ESTMD ALSTG/SLP DATA ESTMD

More Conditions Fewer Conditions

10-Day Weather Forecast

Almanac

Astronomy

Apr. 21, 2015 Rise Set
Actual Time
Civil Twilight
Nautical Twilight
Astronomical Twilight
Moon
Length of Visible Light
Length of Day
Tomorrow will be .
, % of the Moon is Illuminated

Today's Extremes

State Highs State Lows

Community

WunderPhotos

Upload Photos

1,815,526 photos uploaded!

WunderBlogs® & News

Nearby

Air Quality

  Air Quality AQ Index Pollutant
Not available.

Snow Depth

Station Depth Elevation

Earthquake Activity

City Distance Mag. Time & Date
Minimum magnitude displayed is 2.5.

Coastal Water Temperatures

Place Temperature

Stations

Nearby Weather Stations

Station Location Temp. Windchill Dew Point Humidity Wind Precip. Elev Updated Type